首页
METAR-TAF:

METAR-TAF

机场 :

Burlington Municipal Airport

伯灵顿, 威斯康辛州, 美国

纬度: 42-41-26N, 经度: 088-18-17W, 海拔: 237米

当前天气观测

该预报发布于32分钟前的07:35 UTC
风速11节,风向西
温度 -4°C
湿度 74%
气压 1012 hPa
能見度: 16.1公里
阴天层高于2300英尺
小雪

METAR: KBUU 100735Z AUTO 28011KT 10SM -SN OVC023 M04/M08 A2987 RMK AO2 T10451082

时间: 02:07 (08:07 UTC)


TAF: 丢失

超过4000个机场的气象观测和天气预报(METAR&TAF报告)。

可查询的气象台以黄色和红色小点在地图上表示。

将鼠标移到小点上方,可查看气象台名称。

然后点击查看天气观测和预报。

如需切换地图:点击带黑十字的绿色按钮放大地图;点击带横线的绿色按钮缩小地图;或者点击绿色箭头查看邻近地区的地图。


METAR-TAF: